createdAt,value
2022-12-11T00:00:59.675Z,11.60
2022-12-11T00:03:01.080Z,12.02
2022-12-11T00:05:02.584Z,12.30
2022-12-11T00:07:03.963Z,12.95
2022-12-11T00:09:05.433Z,11.65
2022-12-11T00:11:12.582Z,13.80
2022-12-11T00:13:13.976Z,13.23
2022-12-11T00:15:15.572Z,12.68
2022-12-11T00:17:16.911Z,13.40
2022-12-11T00:19:18.316Z,12.63
2022-12-11T00:21:19.705Z,12.25
2022-12-11T00:23:21.164Z,12.60
2022-12-11T00:25:22.512Z,12.63
2022-12-11T00:27:24.221Z,12.73
2022-12-11T00:29:27.475Z,13.13
2022-12-11T00:31:29.835Z,14.77
2022-12-11T00:33:31.590Z,13.27
2022-12-11T00:35:32.968Z,13.25
2022-12-11T00:37:34.448Z,13.43
2022-12-11T00:39:37.447Z,13.60
2022-12-11T00:41:38.803Z,14.70
2022-12-11T00:43:40.523Z,15.10
2022-12-11T00:45:44.696Z,15.48
2022-12-11T00:47:46.209Z,13.88
2022-12-11T00:49:49.967Z,13.68
2022-12-11T00:51:51.799Z,13.23
2022-12-11T00:53:53.482Z,12.35
2022-12-11T00:55:54.916Z,13.00
2022-12-11T00:57:58.261Z,12.40
2022-12-11T00:59:59.661Z,12.93
2022-12-11T01:02:00.996Z,12.88
2022-12-11T01:04:02.510Z,11.93
2022-12-11T01:06:04.938Z,12.80
2022-12-11T01:08:06.602Z,11.55
2022-12-11T01:10:27.596Z,11.65
2022-12-11T01:12:29.133Z,11.40
2022-12-11T01:14:30.502Z,12.02
2022-12-11T01:16:32.532Z,12.88
2022-12-11T01:18:33.944Z,12.40
2022-12-11T01:20:37.187Z,11.02
2022-12-11T01:22:39.412Z,10.80
2022-12-11T01:24:40.816Z,11.07
2022-12-11T01:26:42.185Z,11.35
2022-12-11T01:28:44.354Z,11.60
2022-12-11T01:30:45.985Z,12.32
2022-12-11T01:32:47.482Z,10.50
2022-12-11T01:34:48.998Z,10.35
2022-12-11T01:36:52.329Z,11.23
2022-12-11T01:38:54.364Z,12.60
2022-12-11T01:40:55.735Z,12.32
2022-12-11T01:42:57.146Z,10.70
2022-12-11T01:45:27.291Z,11.70
2022-12-11T01:47:28.838Z,11.63
2022-12-11T01:49:30.272Z,13.77
2022-12-11T01:51:35.768Z,11.35
2022-12-11T01:53:42.449Z,11.20
2022-12-11T01:55:45.000Z,11.65
2022-12-11T01:57:50.443Z,12.25
2022-12-11T01:59:51.885Z,11.40
2022-12-11T02:02:30.020Z,12.13
2022-12-11T02:04:34.767Z,10.90
2022-12-11T02:06:46.862Z,10.25
2022-12-11T02:08:48.304Z,10.57
2022-12-11T02:11:17.644Z,11.45
2022-12-11T02:13:38.306Z,10.20
2022-12-11T02:15:51.427Z,10.77
2022-12-11T02:17:55.791Z,11.35
2022-12-11T02:19:57.088Z,10.45
2022-12-11T02:22:02.732Z,11.65
2022-12-11T02:24:26.495Z,11.75
2022-12-11T02:26:51.420Z,11.07
2022-12-11T02:28:58.003Z,10.85
2022-12-11T02:31:05.422Z,11.45
2022-12-11T02:33:09.582Z,10.65
2022-12-11T02:35:23.671Z,12.43
2022-12-11T02:37:29.604Z,11.13
2022-12-11T02:39:33.519Z,10.18
2022-12-11T02:41:35.251Z,13.18
2022-12-11T02:43:37.828Z,13.50
2022-12-11T02:45:41.632Z,10.95
2022-12-11T02:47:47.858Z,12.55
2022-12-11T02:49:50.771Z,11.50
2022-12-11T02:51:54.552Z,11.68
2022-12-11T02:53:58.927Z,12.15
2022-12-11T02:56:12.988Z,11.85
2022-12-11T02:58:19.553Z,11.70
2022-12-11T03:00:21.844Z,11.18
2022-12-11T03:02:23.388Z,13.10
2022-12-11T03:04:24.902Z,13.82
2022-12-11T03:06:32.870Z,13.18
2022-12-11T03:08:34.263Z,11.13
2022-12-11T03:10:41.839Z,12.55
2022-12-11T03:12:53.042Z,12.20
2022-12-11T03:26:43.883Z,10.88
2022-12-11T03:28:56.538Z,11.80
2022-12-11T03:31:02.958Z,12.35
2022-12-11T03:33:13.596Z,11.80
2022-12-11T03:35:25.053Z,12.07
2022-12-11T03:37:31.298Z,11.00
2022-12-11T03:39:37.723Z,10.98
2022-12-11T03:41:41.026Z,12.48
2022-12-11T03:43:42.805Z,12.88
2022-12-11T03:45:46.915Z,12.73
2022-12-11T03:47:50.439Z,12.52
2022-12-11T03:49:53.719Z,13.45
2022-12-11T03:51:57.966Z,13.45
2022-12-11T03:54:00.068Z,11.98
2022-12-11T03:56:04.264Z,14.13
2022-12-11T03:58:05.685Z,14.15
2022-12-11T04:00:10.618Z,13.32
2022-12-11T04:02:12.152Z,12.75
2022-12-11T04:04:13.892Z,12.40
2022-12-11T04:06:15.302Z,11.95
2022-12-11T04:08:20.681Z,14.57
2022-12-11T04:10:22.124Z,13.35
2022-12-11T04:12:23.671Z,13.95
2022-12-11T04:14:43.984Z,13.35
2022-12-11T04:16:45.329Z,14.07
2022-12-11T04:19:05.052Z,14.13
2022-12-11T04:21:24.818Z,13.75
2022-12-11T04:23:44.534Z,13.20
2022-12-11T04:25:50.922Z,13.15
2022-12-11T04:27:52.951Z,13.27
2022-12-11T04:29:54.318Z,13.15
2022-12-11T04:31:55.853Z,14.82
2022-12-11T04:33:57.253Z,15.32
2022-12-11T04:35:59.707Z,17.80
2022-12-11T04:38:09.036Z,17.90
2022-12-11T04:40:13.213Z,16.48
2022-12-11T04:42:14.673Z,14.95
2022-12-11T04:44:16.051Z,15.85
2022-12-11T04:46:20.674Z,16.10
2022-12-11T04:48:22.031Z,16.02
2022-12-11T04:50:23.396Z,16.42
2022-12-11T04:52:24.808Z,16.10
2022-12-11T04:54:26.269Z,14.90
2022-12-11T04:56:27.697Z,14.98
2022-12-11T04:58:29.103Z,14.02
2022-12-11T05:00:30.460Z,14.95
2022-12-11T05:02:35.115Z,14.90
2022-12-11T05:04:36.570Z,14.52
2022-12-11T05:06:37.944Z,14.80
2022-12-11T05:08:41.435Z,13.32
2022-12-11T05:10:48.586Z,14.38
2022-12-11T05:12:51.457Z,12.52
2022-12-11T05:14:53.551Z,14.50
2022-12-11T05:16:54.896Z,14.27
2022-12-11T05:18:56.268Z,13.18
2022-12-11T05:21:03.165Z,14.02
2022-12-11T05:23:04.559Z,12.85
2022-12-11T05:25:06.653Z,15.13
2022-12-11T05:27:08.029Z,13.38
2022-12-11T05:29:09.596Z,15.40
2022-12-11T05:31:16.972Z,13.73
2022-12-11T05:33:18.389Z,14.45
2022-12-11T05:35:19.788Z,12.80
2022-12-11T05:37:21.288Z,12.60
2022-12-11T05:39:22.675Z,13.60
2022-12-11T05:41:26.070Z,14.10
2022-12-11T05:43:28.987Z,13.30
2022-12-11T05:45:30.361Z,12.85
2022-12-11T05:47:31.809Z,12.07
2022-12-11T05:49:33.179Z,14.52
2022-12-11T05:51:34.995Z,14.80
2022-12-11T05:53:38.182Z,12.63
2022-12-11T05:55:39.516Z,14.07
2022-12-11T05:57:40.987Z,13.38
2022-12-11T05:59:42.369Z,14.68
2022-12-11T06:01:43.803Z,12.88
2022-12-11T06:03:45.639Z,12.45
2022-12-11T06:05:46.993Z,13.10
2022-12-11T06:07:48.398Z,14.30
2022-12-11T06:09:49.793Z,13.63
2022-12-11T06:11:51.142Z,12.50
2022-12-11T06:13:53.128Z,12.88
2022-12-11T06:15:54.635Z,12.40
2022-12-11T06:17:56.072Z,13.15
2022-12-11T06:19:57.476Z,12.77
2022-12-11T06:21:58.815Z,12.20
2022-12-11T06:24:02.365Z,14.00
2022-12-11T06:26:04.138Z,12.23
2022-12-11T06:28:05.505Z,12.02
2022-12-11T06:30:07.980Z,13.18
2022-12-11T06:32:09.387Z,12.32
2022-12-11T06:34:14.086Z,12.57
2022-12-11T06:36:18.667Z,12.63
2022-12-11T06:38:20.065Z,12.35
2022-12-11T06:40:21.560Z,11.60
2022-12-11T06:42:22.940Z,13.48
2022-12-11T06:44:24.982Z,13.10
2022-12-11T06:46:26.353Z,12.55
2022-12-11T06:48:28.582Z,12.45
2022-12-11T06:50:30.039Z,13.63
2022-12-11T06:52:31.519Z,11.70
2022-12-11T06:54:33.051Z,13.57
2022-12-11T06:56:34.843Z,12.68
2022-12-11T06:58:37.411Z,11.80
2022-12-11T07:00:39.112Z,12.65
2022-12-11T07:02:40.660Z,12.98
2022-12-11T07:04:42.446Z,11.85
2022-12-11T07:06:44.273Z,11.55
2022-12-11T07:08:45.701Z,12.15
2022-12-11T07:10:47.077Z,11.75
2022-12-11T07:12:48.516Z,10.68
2022-12-11T07:14:49.915Z,12.15
2022-12-11T07:16:51.406Z,10.98
2022-12-11T07:18:52.779Z,11.45
2022-12-11T07:20:54.416Z,11.63
2022-12-11T07:22:55.921Z,10.65
2022-12-11T07:24:57.357Z,12.15
2022-12-11T07:26:59.712Z,9.88
2022-12-11T07:29:01.158Z,10.85
2022-12-11T07:31:07.495Z,10.00
2022-12-11T07:33:08.932Z,9.93
2022-12-11T07:35:10.580Z,10.23
2022-12-11T07:37:12.188Z,9.77
2022-12-11T07:39:13.764Z,10.77
2022-12-11T07:41:16.156Z,11.65
2022-12-11T07:43:17.547Z,9.68
2022-12-11T07:45:18.974Z,10.73
2022-12-11T07:47:20.337Z,10.10
2022-12-11T07:49:21.791Z,9.13
2022-12-11T07:51:28.712Z,9.35
2022-12-11T07:53:30.074Z,10.68
2022-12-11T07:55:32.065Z,9.75
2022-12-11T07:57:33.458Z,10.00
2022-12-11T07:59:34.888Z,9.50
2022-12-11T08:01:37.937Z,8.77
2022-12-11T08:03:39.895Z,9.55
2022-12-11T08:05:48.731Z,9.57
2022-12-11T08:07:50.176Z,8.20
2022-12-11T08:09:51.599Z,9.80
2022-12-11T08:11:53.048Z,8.23
2022-12-11T08:13:55.065Z,8.63
2022-12-11T08:15:56.629Z,10.20
2022-12-11T08:17:57.976Z,8.68
2022-12-11T08:19:59.352Z,8.70
2022-12-11T08:22:00.711Z,7.90
2022-12-11T08:24:02.111Z,8.50
2022-12-11T08:26:06.047Z,9.30
2022-12-11T08:28:07.398Z,9.65
2022-12-11T08:30:09.772Z,9.10
2022-12-11T08:32:13.559Z,9.25
2022-12-11T08:34:14.952Z,8.68
2022-12-11T08:36:20.662Z,8.82
2022-12-11T08:38:25.346Z,9.48
2022-12-11T08:40:27.089Z,8.77
2022-12-11T08:42:28.488Z,8.60
2022-12-11T08:44:30.035Z,9.50
2022-12-11T08:46:32.467Z,9.00
2022-12-11T08:48:35.454Z,8.50
2022-12-11T08:50:37.586Z,9.93
2022-12-11T08:52:38.992Z,8.85
2022-12-11T08:54:40.462Z,8.98
2022-12-11T08:56:41.852Z,8.25
2022-12-11T08:58:44.340Z,8.40
2022-12-11T09:00:45.680Z,7.72
2022-12-11T09:02:48.096Z,8.10
2022-12-11T09:04:50.458Z,8.13
2022-12-11T09:06:52.008Z,7.57
2022-12-11T09:08:53.902Z,7.35
2022-12-11T09:10:55.259Z,7.13
2022-12-11T09:12:56.621Z,6.20
2022-12-11T09:14:57.963Z,6.68
2022-12-11T09:16:59.366Z,6.82
2022-12-11T09:19:00.699Z,6.47
2022-12-11T09:21:05.404Z,6.60
2022-12-11T09:23:06.807Z,7.28
2022-12-11T09:25:09.768Z,8.00
2022-12-11T09:27:11.275Z,7.68
2022-12-11T09:29:13.170Z,6.95
2022-12-11T09:31:17.870Z,8.48
2022-12-11T09:33:19.475Z,6.85
2022-12-11T09:35:20.840Z,6.88
2022-12-11T09:37:22.286Z,6.15
2022-12-11T09:39:24.582Z,7.82
2022-12-11T09:41:40.310Z,6.65
2022-12-11T09:43:49.583Z,6.47
2022-12-11T09:45:51.290Z,7.25
2022-12-11T09:47:56.167Z,6.72
2022-12-11T09:50:09.615Z,6.65
2022-12-11T09:54:18.618Z,5.70
2022-12-11T09:56:20.035Z,5.40
2022-12-11T09:58:31.711Z,5.22
2022-12-11T10:00:41.467Z,6.45
2022-12-11T10:03:10.399Z,5.85
2022-12-11T10:05:35.509Z,6.00
2022-12-11T10:07:46.201Z,4.22
2022-12-11T10:10:23.255Z,4.55
2022-12-11T10:12:48.247Z,4.28
2022-12-11T10:15:20.494Z,7.63
2022-12-11T10:17:31.076Z,6.03
2022-12-11T10:19:33.038Z,5.13
2022-12-11T10:21:41.544Z,6.30
2022-12-11T10:23:53.659Z,5.55
2022-12-11T10:26:15.976Z,5.28
2022-12-11T10:28:20.436Z,5.05
2022-12-11T10:30:37.464Z,5.55
2022-12-11T10:32:53.343Z,6.07
2022-12-11T10:35:03.953Z,5.85
2022-12-11T10:37:05.431Z,5.65
2022-12-11T10:39:16.013Z,6.22
2022-12-11T10:41:20.951Z,5.65
2022-12-11T10:43:33.615Z,6.07
2022-12-11T10:45:35.082Z,6.65
2022-12-11T10:47:36.483Z,5.43
2022-12-11T10:49:42.766Z,6.35
2022-12-11T10:51:44.481Z,5.22
2022-12-11T10:53:51.527Z,5.85
2022-12-11T10:55:53.613Z,5.63
2022-12-11T10:58:02.752Z,6.88
2022-12-11T11:00:07.362Z,6.30
2022-12-11T11:02:40.521Z,5.10
2022-12-11T11:04:44.736Z,5.90
2022-12-11T11:06:46.170Z,5.88
2022-12-11T11:08:53.852Z,6.55
2022-12-11T11:10:58.195Z,6.80
2022-12-11T11:13:03.021Z,6.45
2022-12-11T11:15:15.146Z,5.60
2022-12-11T11:17:17.554Z,5.95
2022-12-11T11:19:29.435Z,6.30
2022-12-11T11:21:32.428Z,6.60
2022-12-11T11:23:34.483Z,5.97
2022-12-11T11:25:35.936Z,5.82
2022-12-11T11:27:45.751Z,5.75
2022-12-11T11:29:51.660Z,5.55
2022-12-11T11:31:54.794Z,6.65
2022-12-11T11:33:58.760Z,5.32
2022-12-11T11:36:05.965Z,5.22
2022-12-11T11:40:30.357Z,5.07
2022-12-11T11:42:47.223Z,5.28
2022-12-11T11:45:05.240Z,5.25
2022-12-11T11:47:24.220Z,5.45
2022-12-11T11:49:50.296Z,5.82
2022-12-11T11:52:01.058Z,5.43
2022-12-11T11:54:20.711Z,5.10
2022-12-11T11:56:35.003Z,5.82
2022-12-11T11:58:47.972Z,6.18
2022-12-11T12:00:50.189Z,6.30
2022-12-11T12:02:56.204Z,6.40
2022-12-11T12:04:57.649Z,6.38
2022-12-11T12:07:04.676Z,6.85
2022-12-11T12:09:26.589Z,6.10
2022-12-11T12:11:49.588Z,6.05
2022-12-11T12:14:02.456Z,6.80
2022-12-11T12:16:22.919Z,5.85
2022-12-11T12:19:08.391Z,5.93
2022-12-11T12:21:36.950Z,6.22
2022-12-11T12:23:50.188Z,6.00
2022-12-11T12:26:08.842Z,5.60
2022-12-11T12:28:28.978Z,6.68
2022-12-11T12:30:46.727Z,7.32
2022-12-11T12:32:56.905Z,8.23
2022-12-11T12:35:12.755Z,8.77
2022-12-11T12:37:48.514Z,6.97
2022-12-11T12:40:08.517Z,7.03
2022-12-11T12:42:25.149Z,7.38
2022-12-11T12:44:35.094Z,7.28
2022-12-11T12:47:00.991Z,7.07
2022-12-11T12:49:04.872Z,6.38
2022-12-11T12:51:06.819Z,6.55
2022-12-11T12:53:13.466Z,7.13
2022-12-11T12:55:31.721Z,6.68
2022-12-11T12:57:34.983Z,6.57
2022-12-11T12:59:36.400Z,6.38
2022-12-11T13:01:38.656Z,6.78
2022-12-11T13:04:47.437Z,6.50
2022-12-11T13:06:47.565Z,6.43
2022-12-11T13:08:51.700Z,6.85
2022-12-11T13:11:03.604Z,7.18
2022-12-11T13:13:06.603Z,7.32
2022-12-11T13:15:32.018Z,7.63
2022-12-11T13:17:38.169Z,6.63
2022-12-11T13:19:42.730Z,6.72
2022-12-11T13:21:59.876Z,7.00
2022-12-11T13:24:28.401Z,7.47
2022-12-11T13:26:31.899Z,7.07
2022-12-11T13:28:54.029Z,6.78
2022-12-11T13:31:01.459Z,7.07
2022-12-11T13:33:14.838Z,7.20
2022-12-11T13:35:18.248Z,7.60
2022-12-11T13:37:41.119Z,6.85
2022-12-11T13:39:47.095Z,6.57
2022-12-11T13:41:55.185Z,7.70
2022-12-11T13:43:57.869Z,6.80
2022-12-11T13:46:02.976Z,7.80
2022-12-11T13:48:16.987Z,7.72
2022-12-11T13:50:24.928Z,6.47
2022-12-11T13:52:27.601Z,6.93
2022-12-11T13:54:31.904Z,7.22
2022-12-11T13:56:34.284Z,7.13
2022-12-11T13:58:38.807Z,8.23
2022-12-11T14:00:40.477Z,7.60
2022-12-11T14:02:42.618Z,7.00
2022-12-11T14:04:44.877Z,8.15
2022-12-11T14:06:46.370Z,6.53
2022-12-11T14:08:51.568Z,7.05
2022-12-11T14:10:54.315Z,7.10
2022-12-11T14:13:21.948Z,7.22
2022-12-11T14:15:23.706Z,6.63
2022-12-11T14:17:27.812Z,6.90
2022-12-11T14:19:29.394Z,7.32
2022-12-11T14:21:30.805Z,7.65
2022-12-11T14:23:36.570Z,6.85
2022-12-11T14:25:37.944Z,7.78
2022-12-11T14:27:50.890Z,6.72
2022-12-11T14:29:52.699Z,7.28
2022-12-11T14:31:54.895Z,7.15
2022-12-11T14:34:03.028Z,7.65
2022-12-11T14:36:06.412Z,7.15
2022-12-11T14:38:16.635Z,6.97
2022-12-11T14:40:22.911Z,7.28
2022-12-11T14:42:32.436Z,7.40
2022-12-11T14:44:56.486Z,7.57
2022-12-11T14:47:03.520Z,6.78
2022-12-11T14:49:26.041Z,7.57
2022-12-11T14:51:33.526Z,7.55
2022-12-11T14:53:51.044Z,7.18
2022-12-11T14:55:53.096Z,6.75
2022-12-11T14:58:02.557Z,7.35
2022-12-11T15:00:05.194Z,7.50
2022-12-11T15:02:29.932Z,7.85
2022-12-11T15:04:33.237Z,7.55
2022-12-11T15:06:43.987Z,7.45
2022-12-11T15:08:45.501Z,7.30
2022-12-11T15:11:10.337Z,6.97
2022-12-11T15:13:13.863Z,6.43
2022-12-11T15:15:17.195Z,7.18
2022-12-11T15:17:23.547Z,7.35
2022-12-11T15:19:30.587Z,7.30
2022-12-11T15:21:36.207Z,7.72
2022-12-11T15:23:59.886Z,6.47
2022-12-11T15:26:02.613Z,8.07
2022-12-11T15:28:04.204Z,7.25
2022-12-11T15:30:20.005Z,7.53
2022-12-11T15:32:21.833Z,7.47
2022-12-11T15:34:23.479Z,7.30
2022-12-11T15:36:31.254Z,8.18
2022-12-11T15:38:42.092Z,8.48
2022-12-11T15:40:43.445Z,8.20
2022-12-11T15:42:45.192Z,8.15
2022-12-11T15:44:46.638Z,7.97
2022-12-11T15:46:48.030Z,8.23
2022-12-11T15:48:50.192Z,8.45
2022-12-11T15:51:17.054Z,8.00
2022-12-11T15:53:18.423Z,8.57
2022-12-11T15:55:21.184Z,7.93
2022-12-11T15:57:24.521Z,8.70
2022-12-11T15:59:26.112Z,8.05
2022-12-11T16:01:27.589Z,8.85
2022-12-11T16:03:29.081Z,7.88
2022-12-11T16:05:30.470Z,9.40
2022-12-11T16:07:32.596Z,8.05
2022-12-11T16:09:34.549Z,8.00
2022-12-11T16:11:35.912Z,8.75
2022-12-11T16:13:37.299Z,8.85
2022-12-11T16:15:41.372Z,8.90
2022-12-11T16:17:42.950Z,8.85
2022-12-11T16:19:44.600Z,9.18
2022-12-11T16:21:45.966Z,9.35
2022-12-11T16:23:47.363Z,9.60
2022-12-11T16:25:52.189Z,8.68
2022-12-11T16:28:02.455Z,9.90
2022-12-11T16:30:05.036Z,9.73
2022-12-11T16:32:08.239Z,9.18
2022-12-11T16:34:09.687Z,9.32
2022-12-11T16:36:15.815Z,10.05
2022-12-11T16:38:17.251Z,9.10
2022-12-11T16:40:19.177Z,9.25
2022-12-11T16:42:20.575Z,9.32
2022-12-11T16:44:24.351Z,9.57
2022-12-11T16:46:25.876Z,8.95
2022-12-11T16:48:27.396Z,9.55
2022-12-11T16:50:28.762Z,9.02
2022-12-11T16:52:31.969Z,9.85
2022-12-11T16:54:33.325Z,9.77
2022-12-11T16:56:34.862Z,10.32
2022-12-11T16:58:36.285Z,10.15
2022-12-11T17:00:38.226Z,10.65
2022-12-11T17:02:39.868Z,9.80
2022-12-11T17:04:41.939Z,9.60
2022-12-11T17:06:46.729Z,9.23
2022-12-11T17:08:48.224Z,10.82
2022-12-11T17:10:51.151Z,10.05
2022-12-11T17:12:52.535Z,10.23
2022-12-11T17:14:54.827Z,9.73
2022-12-11T17:16:56.654Z,9.50
2022-12-11T17:18:58.148Z,10.32
2022-12-11T17:21:00.281Z,9.07
2022-12-11T17:23:01.678Z,8.98
2022-12-11T17:25:03.543Z,9.63
2022-12-11T17:27:04.892Z,8.95
2022-12-11T17:29:06.605Z,9.98
2022-12-11T17:31:12.281Z,8.50
2022-12-11T17:33:13.703Z,9.18
2022-12-11T17:35:15.076Z,8.77
2022-12-11T17:37:17.295Z,9.60
2022-12-11T17:39:18.761Z,10.45
2022-12-11T17:41:21.752Z,9.68
2022-12-11T17:43:23.197Z,9.50
2022-12-11T17:45:24.706Z,9.85
2022-12-11T17:47:26.159Z,10.23
2022-12-11T17:49:27.624Z,10.32
2022-12-11T17:51:29.014Z,10.85
2022-12-11T17:53:30.392Z,10.90
2022-12-11T17:55:32.503Z,11.40
2022-12-11T17:57:34.363Z,11.43
2022-12-11T17:59:35.729Z,10.98
2022-12-11T18:01:37.525Z,11.23
2022-12-11T18:03:40.196Z,11.65
2022-12-11T18:05:45.222Z,11.57
2022-12-11T18:07:46.649Z,11.60
2022-12-11T18:09:48.035Z,11.48
2022-12-11T18:11:49.430Z,11.73
2022-12-11T18:13:52.363Z,10.43
2022-12-11T18:16:02.929Z,12.25
2022-12-11T18:18:04.962Z,11.63
2022-12-11T18:20:06.852Z,11.38
2022-12-11T18:22:08.190Z,12.30
2022-12-11T18:24:10.339Z,12.13
2022-12-11T18:26:14.338Z,12.98
2022-12-11T18:28:15.732Z,12.07
2022-12-11T18:30:17.504Z,11.98
2022-12-11T18:32:18.912Z,13.02
2022-12-11T18:34:20.273Z,12.25
2022-12-11T18:36:21.912Z,12.63
2022-12-11T18:38:23.900Z,12.52
2022-12-11T18:40:25.282Z,11.40
2022-12-11T18:42:34.888Z,10.57
2022-12-11T18:44:36.296Z,10.77
2022-12-11T18:46:39.414Z,11.23
2022-12-11T18:48:42.399Z,10.70
2022-12-11T18:50:48.516Z,11.27
2022-12-11T18:52:53.904Z,10.90
2022-12-11T18:54:55.312Z,10.80
2022-12-11T18:56:56.707Z,11.50
2022-12-11T18:58:58.100Z,12.48
2022-12-11T19:00:59.594Z,10.98
2022-12-11T19:03:02.001Z,11.15
2022-12-11T19:05:03.628Z,11.23
2022-12-11T19:07:04.958Z,10.98
2022-12-11T19:09:08.975Z,10.18
2022-12-11T19:11:14.712Z,11.02
2022-12-11T19:13:16.145Z,10.13
2022-12-11T19:15:23.985Z,11.40
2022-12-11T19:17:25.708Z,11.27
2022-12-11T19:19:27.095Z,11.32
2022-12-11T19:21:28.581Z,11.85
2022-12-11T19:23:29.982Z,10.43
2022-12-11T19:25:32.336Z,10.73
2022-12-11T19:27:33.760Z,10.65
2022-12-11T19:29:35.158Z,10.55
2022-12-11T19:31:36.624Z,10.73
2022-12-11T19:33:39.738Z,10.63
2022-12-11T19:35:41.589Z,12.93
2022-12-11T19:37:43.139Z,11.75
2022-12-11T19:39:44.532Z,11.50
2022-12-11T19:41:46.374Z,10.52
2022-12-11T19:43:47.849Z,10.05
2022-12-11T19:45:49.522Z,11.32
2022-12-11T19:47:50.969Z,11.25
2022-12-11T19:49:52.326Z,11.40
2022-12-11T19:51:53.694Z,11.70
2022-12-11T19:53:55.808Z,10.75
2022-12-11T19:55:57.167Z,11.52
2022-12-11T19:57:58.738Z,10.65
2022-12-11T20:00:01.068Z,12.02
2022-12-11T20:02:02.451Z,11.30
2022-12-11T20:04:08.107Z,11.98
2022-12-11T20:06:10.002Z,10.52
2022-12-11T20:08:43.091Z,11.65
2022-12-11T20:10:36.603Z,10.43
2022-12-11T20:12:38.227Z,11.02
2022-12-11T20:14:39.652Z,12.65
2022-12-11T20:19:02.801Z,10.95
2022-12-11T20:21:07.720Z,10.75
2022-12-11T20:23:09.508Z,11.43
2022-12-11T20:25:11.332Z,11.82
2022-12-11T20:27:12.867Z,11.55
2022-12-11T20:29:14.906Z,11.13
2022-12-11T20:31:20.531Z,11.73
2022-12-11T20:33:22.359Z,11.23
2022-12-11T20:35:26.267Z,11.30
2022-12-11T20:37:28.962Z,10.70
2022-12-11T20:39:31.880Z,11.80
2022-12-11T20:41:33.421Z,11.10
2022-12-11T20:43:34.803Z,11.40
2022-12-11T20:45:36.199Z,11.77
2022-12-11T20:47:37.608Z,11.75
2022-12-11T20:49:39.256Z,11.35
2022-12-11T20:51:40.968Z,11.10
2022-12-11T20:53:42.946Z,9.95
2022-12-11T20:55:44.746Z,10.90
2022-12-11T20:57:46.083Z,11.00
2022-12-11T20:59:49.037Z,13.05
2022-12-11T21:01:50.579Z,11.60
2022-12-11T21:03:53.381Z,12.27
2022-12-11T21:05:54.814Z,11.75
2022-12-11T21:07:56.579Z,12.43
2022-12-11T21:09:57.946Z,12.23
2022-12-11T21:12:01.492Z,11.88
2022-12-11T21:14:03.392Z,12.07
2022-12-11T21:16:07.103Z,11.73
2022-12-11T21:18:08.926Z,13.02
2022-12-11T21:20:10.620Z,12.07
2022-12-11T21:22:12.179Z,12.07
2022-12-11T21:24:26.477Z,12.32
2022-12-11T21:26:27.900Z,11.27
2022-12-11T21:28:35.029Z,11.40
2022-12-11T21:30:40.052Z,11.70
2022-12-11T21:32:41.458Z,12.15
2022-12-11T21:34:42.839Z,11.48
2022-12-11T21:36:45.025Z,11.75
2022-12-11T21:38:47.515Z,12.20
2022-12-11T21:40:49.177Z,11.85
2022-12-11T21:42:50.555Z,11.40
2022-12-11T21:47:13.343Z,11.82
2022-12-11T21:49:14.721Z,11.57
2022-12-11T21:51:34.078Z,12.15
2022-12-11T21:53:38.271Z,11.35
2022-12-11T21:55:41.358Z,12.13
2022-12-11T21:57:42.725Z,13.82
2022-12-11T21:59:44.188Z,12.77
2022-12-11T22:01:46.167Z,12.40
2022-12-11T22:03:48.882Z,10.65
2022-12-11T22:05:50.320Z,12.07
2022-12-11T22:07:51.760Z,11.77
2022-12-11T22:09:53.167Z,12.02
2022-12-11T22:11:58.334Z,12.32
2022-12-11T22:14:00.522Z,12.20
2022-12-11T22:16:01.894Z,13.68
2022-12-11T22:18:03.900Z,12.25
2022-12-11T22:20:06.022Z,12.73
2022-12-11T22:22:07.403Z,13.32
2022-12-11T22:24:09.118Z,13.60
2022-12-11T22:26:23.032Z,13.07
2022-12-11T22:28:24.835Z,12.70
2022-12-11T22:30:26.308Z,13.38
2022-12-11T22:32:27.790Z,13.98
2022-12-11T22:34:29.560Z,13.57
2022-12-11T22:36:30.953Z,15.02
2022-12-11T22:38:33.563Z,14.43
2022-12-11T22:40:39.870Z,13.25
2022-12-11T22:42:41.283Z,12.48
2022-12-11T22:44:42.677Z,13.50
2022-12-11T22:46:49.737Z,13.43
2022-12-11T22:48:52.069Z,12.18
2022-12-11T22:50:53.458Z,13.05
2022-12-11T22:52:54.851Z,12.15
2022-12-11T22:54:56.423Z,13.98
2022-12-11T22:56:57.929Z,14.00
2022-12-11T22:58:59.463Z,13.00
2022-12-11T23:01:01.617Z,13.02
2022-12-11T23:03:03.789Z,12.60
2022-12-11T23:05:06.382Z,12.57
2022-12-11T23:07:08.109Z,12.85
2022-12-11T23:09:10.826Z,13.15
2022-12-11T23:11:13.200Z,12.77
2022-12-11T23:13:14.724Z,13.98
2022-12-11T23:15:16.500Z,12.48
2022-12-11T23:17:17.872Z,12.80
2022-12-11T23:19:25.291Z,11.98
2022-12-11T23:21:28.063Z,13.02
2022-12-11T23:23:29.547Z,11.80
2022-12-11T23:25:30.920Z,12.55
2022-12-11T23:27:32.360Z,12.07
2022-12-11T23:29:33.788Z,12.07
2022-12-11T23:31:35.640Z,12.95
2022-12-11T23:33:37.370Z,13.00
2022-12-11T23:35:38.771Z,13.95
2022-12-11T23:37:40.148Z,12.73
2022-12-11T23:39:41.548Z,14.02
2022-12-11T23:41:43.207Z,14.75
2022-12-11T23:43:44.614Z,13.45
2022-12-11T23:45:46.647Z,13.68
2022-12-11T23:47:48.088Z,13.50
2022-12-11T23:49:49.493Z,13.20
2022-12-11T23:51:50.908Z,14.75
2022-12-11T23:53:53.094Z,12.18
2022-12-11T23:55:55.277Z,13.52
2022-12-11T23:57:56.640Z,12.98
2022-12-11T23:59:57.980Z,14.27
